createdAt,value
2023-01-02T00:02:07.842Z,100846.69
2023-01-02T00:04:39.671Z,100807.88
2023-01-02T00:07:11.550Z,100846.63
2023-01-02T00:09:43.568Z,100778.63
2023-01-02T00:12:15.477Z,100826.00
2023-01-02T00:14:47.312Z,100842.59
2023-01-02T00:17:19.680Z,100837.69
2023-01-02T00:19:51.736Z,100823.16
2023-01-02T00:22:23.949Z,100838.34
2023-01-02T00:24:55.964Z,100820.69
2023-01-02T00:27:28.006Z,100821.97
2023-01-02T00:29:59.965Z,100829.56
2023-01-02T00:32:31.862Z,100826.91
2023-01-02T00:35:04.032Z,100829.94
2023-01-02T00:37:36.553Z,100797.84
2023-01-02T00:40:14.161Z,100830.00
2023-01-02T00:42:46.203Z,100818.91
2023-01-02T00:45:18.158Z,100819.16
2023-01-02T00:47:50.179Z,100828.16
2023-01-02T00:50:22.178Z,100827.91
2023-01-02T00:52:54.088Z,100785.22
2023-01-02T00:55:25.934Z,100817.31
2023-01-02T00:57:57.816Z,100800.44
2023-01-02T01:00:30.220Z,100838.31
2023-01-02T01:03:02.206Z,100817.78
2023-01-02T01:05:34.084Z,100824.03
2023-01-02T01:08:07.088Z,100842.47
2023-01-02T01:10:39.013Z,100830.88
2023-01-02T01:13:10.955Z,100833.78
2023-01-02T01:15:42.828Z,100808.66
2023-01-02T01:18:14.709Z,100819.25
2023-01-02T01:20:46.692Z,100847.69
2023-01-02T01:23:18.532Z,100843.53
2023-01-02T01:25:50.407Z,100818.38
2023-01-02T01:28:22.588Z,100811.47
2023-01-02T01:30:54.461Z,100826.59
2023-01-02T01:33:26.293Z,100840.03
2023-01-02T01:36:05.655Z,100816.31
2023-01-02T01:38:37.629Z,100810.47
2023-01-02T01:41:11.726Z,100815.75
2023-01-02T01:43:46.629Z,100840.03
2023-01-02T01:46:52.015Z,100831.88
2023-01-02T01:49:29.746Z,100832.25
2023-01-02T01:52:07.142Z,100831.34
2023-01-02T01:54:50.400Z,100815.56
2023-01-02T01:57:51.457Z,100791.41
2023-01-02T02:00:23.737Z,100780.00
2023-01-02T02:02:59.708Z,100765.63
2023-01-02T02:05:32.444Z,100791.88
2023-01-02T02:08:19.323Z,100805.84
2023-01-02T02:10:53.258Z,100810.22
2023-01-02T02:13:25.333Z,100791.75
2023-01-02T02:16:18.577Z,100799.94
2023-01-02T02:19:00.947Z,100785.66
2023-01-02T02:21:59.243Z,100783.16
2023-01-02T02:24:56.140Z,100774.38
2023-01-02T02:27:49.222Z,100776.13
2023-01-02T02:30:30.924Z,100771.47
2023-01-02T02:33:23.325Z,100784.38
2023-01-02T02:36:05.317Z,100782.72
2023-01-02T02:38:45.468Z,100778.16
2023-01-02T02:41:33.861Z,100776.41
2023-01-02T02:44:27.135Z,100787.59
2023-01-02T02:47:06.636Z,100760.34
2023-01-02T02:49:44.460Z,100786.13
2023-01-02T02:52:40.820Z,100787.78
2023-01-02T02:55:24.964Z,100786.78
2023-01-02T02:57:59.180Z,100785.09
2023-01-02T03:00:31.326Z,100782.25
2023-01-02T03:03:15.233Z,100761.97
2023-01-02T03:06:14.252Z,100785.19
2023-01-02T03:09:21.593Z,100789.84
2023-01-02T03:11:59.402Z,100786.47
2023-01-02T03:14:42.983Z,100771.00
2023-01-02T03:17:50.233Z,100785.47
2023-01-02T03:20:27.182Z,100767.09
2023-01-02T03:23:05.551Z,100790.66
2023-01-02T03:25:38.420Z,100792.13
2023-01-02T03:28:12.500Z,100804.81
2023-01-02T03:30:47.730Z,100737.63
2023-01-02T03:33:26.364Z,100779.06
2023-01-02T03:36:03.822Z,100795.66
2023-01-02T03:39:02.224Z,100800.00
2023-01-02T03:41:39.572Z,100799.09
2023-01-02T03:44:13.177Z,100795.72
2023-01-02T03:46:45.153Z,100792.22
2023-01-02T03:49:27.215Z,100783.53
2023-01-02T03:51:59.665Z,100787.41
2023-01-02T03:54:32.010Z,100793.25
2023-01-02T03:57:17.301Z,100786.28
2023-01-02T04:00:01.928Z,100794.56
2023-01-02T04:02:57.068Z,100786.88
2023-01-02T04:05:43.930Z,100772.22
2023-01-02T04:08:27.162Z,100776.00
2023-01-02T04:11:01.249Z,100767.97
2023-01-02T04:13:41.121Z,100771.38
2023-01-02T04:16:19.447Z,100760.63
2023-01-02T04:19:13.600Z,100781.09
2023-01-02T04:21:48.841Z,100768.56
2023-01-02T04:24:28.983Z,100789.88
2023-01-02T04:27:08.187Z,100778.22
2023-01-02T04:29:40.407Z,100758.63
2023-01-02T04:32:23.393Z,100732.13
2023-01-02T04:34:57.324Z,100794.03
2023-01-02T04:37:37.498Z,100777.44
2023-01-02T04:40:29.284Z,100785.81
2023-01-02T04:43:01.273Z,100794.69
2023-01-02T04:45:33.202Z,100804.13
2023-01-02T04:48:05.559Z,100806.88
2023-01-02T04:50:37.557Z,100798.31
2023-01-02T04:53:11.069Z,100796.63
2023-01-02T04:55:43.087Z,100805.28
2023-01-02T04:58:15.432Z,100817.84
2023-01-02T05:00:47.366Z,100807.63
2023-01-02T05:03:19.315Z,100816.09
2023-01-02T05:05:51.372Z,100820.25
2023-01-02T05:08:23.337Z,100805.13
2023-01-02T05:10:55.438Z,100808.38
2023-01-02T05:13:28.918Z,100784.75
2023-01-02T05:16:01.124Z,100804.09
2023-01-02T05:18:33.055Z,100805.28
2023-01-02T05:21:30.024Z,100785.81
2023-01-02T05:24:03.786Z,100791.34
2023-01-02T05:26:35.723Z,100769.66
2023-01-02T05:29:07.667Z,100769.47
2023-01-02T05:31:39.621Z,100769.38
2023-01-02T05:34:15.199Z,100781.75
2023-01-02T05:36:47.174Z,100779.50
2023-01-02T05:39:19.120Z,100769.88
2023-01-02T05:41:51.037Z,100753.88
2023-01-02T05:44:23.025Z,100735.47
2023-01-02T05:46:55.023Z,100722.91
2023-01-02T05:49:27.177Z,100740.00
2023-01-02T05:51:59.531Z,100724.31
2023-01-02T05:54:31.357Z,100700.38
2023-01-02T05:57:03.384Z,100698.44
2023-01-02T05:59:36.385Z,100686.53
2023-01-02T06:02:08.786Z,100731.44
2023-01-02T06:04:41.076Z,100729.50
2023-01-02T06:07:13.202Z,100732.44
2023-01-02T06:09:45.159Z,100731.66
2023-01-02T06:12:17.121Z,100714.28
2023-01-02T06:14:52.060Z,100737.59
2023-01-02T06:17:24.082Z,100742.59
2023-01-02T06:19:55.938Z,100731.06
2023-01-02T06:22:27.823Z,100730.91
2023-01-02T06:24:59.660Z,100721.63
2023-01-02T06:27:33.106Z,100691.66
2023-01-02T06:30:05.440Z,100690.06
2023-01-02T06:32:37.340Z,100733.25
2023-01-02T06:35:09.493Z,100752.19
2023-01-02T06:37:45.012Z,100737.25
2023-01-02T06:40:17.125Z,100716.69
2023-01-02T06:42:49.036Z,100738.94
2023-01-02T06:45:21.100Z,100697.78
2023-01-02T06:48:00.731Z,100718.97
2023-01-02T06:50:35.049Z,100724.97
2023-01-02T06:53:07.285Z,100727.13
2023-01-02T06:55:39.853Z,100737.97
2023-01-02T06:58:17.577Z,100727.50
2023-01-02T07:00:51.398Z,100678.41
2023-01-02T07:03:23.335Z,100702.00
2023-01-02T07:05:55.330Z,100705.13
2023-01-02T07:08:27.324Z,100708.34
2023-01-02T07:11:17.575Z,100720.78
2023-01-02T07:13:52.191Z,100722.09
2023-01-02T07:16:24.924Z,100720.28
2023-01-02T07:18:57.044Z,100692.38
2023-01-02T07:21:29.915Z,100709.56
2023-01-02T07:24:01.909Z,100722.69
2023-01-02T07:26:33.876Z,100721.75
2023-01-02T07:29:06.084Z,100725.25
2023-01-02T07:31:38.108Z,100721.97
2023-01-02T07:34:10.079Z,100710.94
2023-01-02T07:36:42.070Z,100702.34
2023-01-02T07:39:14.002Z,100708.63
2023-01-02T07:41:45.987Z,100704.28
2023-01-02T07:44:17.848Z,100715.81
2023-01-02T07:46:49.867Z,100707.28
2023-01-02T07:49:21.820Z,100689.34
2023-01-02T07:51:53.776Z,100701.94
2023-01-02T07:54:25.767Z,100659.81
2023-01-02T07:56:57.987Z,100646.69
2023-01-02T07:59:29.923Z,100646.13
2023-01-02T08:02:01.880Z,100666.91
2023-01-02T08:04:33.872Z,100656.56
2023-01-02T08:07:05.912Z,100653.88
2023-01-02T08:09:37.843Z,100647.94
2023-01-02T08:12:09.825Z,100621.19
2023-01-02T08:14:41.785Z,100647.59
2023-01-02T08:17:13.842Z,100628.00
2023-01-02T08:19:45.796Z,100622.34
2023-01-02T08:22:17.809Z,100651.44
2023-01-02T08:24:49.762Z,100630.50
2023-01-02T08:27:21.633Z,100674.78
2023-01-02T08:29:53.538Z,100660.53
2023-01-02T08:32:25.550Z,100668.78
2023-01-02T08:34:57.398Z,100658.31
2023-01-02T08:37:29.265Z,100646.16
2023-01-02T08:40:01.096Z,100635.03
2023-01-02T08:42:33.029Z,100634.84
2023-01-02T08:45:05.348Z,100674.00
2023-01-02T08:47:37.214Z,100658.81
2023-01-02T08:50:09.251Z,100647.75
2023-01-02T08:52:41.116Z,100685.66
2023-01-02T08:55:13.660Z,100665.84
2023-01-02T08:57:45.512Z,100655.06
2023-01-02T09:00:17.657Z,100683.38
2023-01-02T09:02:49.622Z,100650.88
2023-01-02T09:05:21.659Z,100664.94
2023-01-02T09:07:53.504Z,100637.75
2023-01-02T09:10:25.950Z,100638.22
2023-01-02T09:12:59.056Z,100642.13
2023-01-02T09:15:32.067Z,100641.38
2023-01-02T09:18:04.048Z,100655.38
2023-01-02T09:20:40.422Z,100665.06
2023-01-02T09:23:12.628Z,100638.25
2023-01-02T09:25:44.548Z,100632.41
2023-01-02T09:28:17.977Z,100631.47
2023-01-02T09:30:49.940Z,100645.25
2023-01-02T09:33:23.006Z,100646.19
2023-01-02T09:35:54.951Z,100630.63
2023-01-02T09:38:26.903Z,100643.84
2023-01-02T09:41:01.659Z,100652.63
2023-01-02T09:43:36.469Z,100651.06
2023-01-02T09:46:42.296Z,100636.47
2023-01-02T09:49:18.891Z,100648.09
2023-01-02T09:51:51.674Z,100628.38
2023-01-02T09:54:27.728Z,100627.00
2023-01-02T09:57:33.280Z,100623.28
2023-01-02T10:00:15.831Z,100642.88
2023-01-02T10:03:15.847Z,100641.03
2023-01-02T10:06:21.871Z,100636.81
2023-01-02T10:09:14.796Z,100648.09
2023-01-02T10:11:52.352Z,100634.91
2023-01-02T10:14:53.715Z,100637.03
2023-01-02T10:17:29.448Z,100617.19
2023-01-02T10:20:06.926Z,100595.69
2023-01-02T10:22:47.815Z,100613.00
2023-01-02T10:25:19.482Z,100619.56
2023-01-02T10:28:25.739Z,100595.78
2023-01-02T10:31:07.510Z,100601.75
2023-01-02T10:33:58.373Z,100610.06
2023-01-02T10:36:42.016Z,100609.56
2023-01-02T10:39:20.533Z,100602.47
2023-01-02T10:41:56.077Z,100595.81
2023-01-02T10:44:31.356Z,100585.53
2023-01-02T10:47:31.323Z,100595.28
2023-01-02T10:50:09.072Z,100580.56
2023-01-02T10:52:51.117Z,100565.16
2023-01-02T10:55:52.459Z,100581.59
2023-01-02T10:58:27.010Z,100565.38
2023-01-02T11:01:07.825Z,100564.34
2023-01-02T11:03:40.121Z,100577.72
2023-01-02T11:06:31.191Z,100572.81
2023-01-02T11:09:22.921Z,100573.44
2023-01-02T11:12:01.911Z,100569.09
2023-01-02T11:14:35.985Z,100554.53
2023-01-02T11:17:13.457Z,100554.72
2023-01-02T11:19:49.339Z,100524.47
2023-01-02T11:22:24.190Z,100542.88
2023-01-02T11:25:02.621Z,100539.09
2023-01-02T11:27:41.989Z,100519.97
2023-01-02T11:30:28.150Z,100532.22
2023-01-02T11:33:21.884Z,100536.28
2023-01-02T11:35:57.583Z,100535.44
2023-01-02T11:38:43.881Z,100516.31
2023-01-02T11:41:50.536Z,100526.00
2023-01-02T11:44:29.869Z,100536.78
2023-01-02T11:47:03.447Z,100531.56
2023-01-02T11:49:42.845Z,100536.03
2023-01-02T11:52:19.187Z,100518.69
2023-01-02T11:55:18.981Z,100530.28
2023-01-02T11:57:59.923Z,100527.50
2023-01-02T12:00:35.434Z,100512.63
2023-01-02T12:03:18.659Z,100524.88
2023-01-02T12:06:22.768Z,100524.34
2023-01-02T12:09:04.060Z,100522.56
2023-01-02T12:11:52.112Z,100520.69
2023-01-02T12:14:54.339Z,100482.16
2023-01-02T12:18:00.846Z,100508.16
2023-01-02T12:20:58.709Z,100499.41
2023-01-02T12:23:37.106Z,100508.22
2023-01-02T12:26:33.764Z,100507.25
2023-01-02T12:29:51.102Z,100514.50
2023-01-02T12:32:45.871Z,100521.25
2023-01-02T12:35:20.637Z,100518.16
2023-01-02T12:37:55.357Z,100518.44
2023-01-02T12:40:45.737Z,100504.50
2023-01-02T12:43:36.570Z,100488.22
2023-01-02T12:46:17.407Z,100508.81
2023-01-02T12:49:15.051Z,100485.84
2023-01-02T12:52:03.937Z,100477.66
2023-01-02T12:54:47.664Z,100493.53
2023-01-02T12:57:46.966Z,100502.28
2023-01-02T13:00:45.115Z,100499.69
2023-01-02T13:03:43.912Z,100510.53
2023-01-02T13:06:43.312Z,100506.72
2023-01-02T13:09:36.835Z,100509.53
2023-01-02T13:12:20.562Z,100513.88
2023-01-02T13:15:14.185Z,100510.09
2023-01-02T13:17:51.694Z,100505.94
2023-01-02T13:20:51.351Z,100491.50
2023-01-02T13:23:32.064Z,100486.63
2023-01-02T13:26:10.181Z,100468.47
2023-01-02T13:29:03.890Z,100450.81
2023-01-02T13:31:47.953Z,100461.34
2023-01-02T13:34:30.853Z,100459.78
2023-01-02T13:37:10.248Z,100447.34
2023-01-02T13:39:42.151Z,100452.41
2023-01-02T13:42:42.814Z,100441.41
2023-01-02T13:45:16.617Z,100467.63
2023-01-02T13:48:00.790Z,100471.16
2023-01-02T13:50:35.931Z,100470.44
2023-01-02T13:53:10.737Z,100468.28
2023-01-02T13:55:42.751Z,100473.69
2023-01-02T13:58:14.752Z,100464.56
2023-01-02T14:00:54.444Z,100475.16
2023-01-02T14:03:30.070Z,100469.13
2023-01-02T14:06:05.197Z,100457.00
2023-01-02T14:08:39.757Z,100442.03
2023-01-02T14:11:20.148Z,100456.44
2023-01-02T14:13:54.826Z,100464.34
2023-01-02T14:16:26.793Z,100471.03
2023-01-02T14:19:14.158Z,100477.34
2023-01-02T14:22:05.806Z,100448.25
2023-01-02T14:24:40.911Z,100462.50
2023-01-02T14:27:15.896Z,100462.91
2023-01-02T14:30:13.459Z,100448.97
2023-01-02T14:32:47.406Z,100451.69
2023-01-02T14:35:19.733Z,100457.09
2023-01-02T14:37:56.855Z,100438.19
2023-01-02T14:40:28.676Z,100443.78
2023-01-02T14:43:32.732Z,100449.44
2023-01-02T14:46:04.765Z,100453.25
2023-01-02T14:49:01.581Z,100458.94
2023-01-02T14:52:01.078Z,100431.31
2023-01-02T14:54:50.445Z,100422.09
2023-01-02T14:57:33.012Z,100438.56
2023-01-02T15:00:12.140Z,100414.56
2023-01-02T15:02:48.775Z,100412.50
2023-01-02T15:05:34.998Z,100433.38
2023-01-02T15:08:11.540Z,100426.75
2023-01-02T15:11:19.667Z,100423.50
2023-01-02T15:14:05.428Z,100418.84
2023-01-02T15:16:45.570Z,100388.97
2023-01-02T15:19:22.360Z,100401.19
2023-01-02T15:21:55.643Z,100426.97
2023-01-02T15:24:34.443Z,100404.53
2023-01-02T15:27:24.259Z,100427.03
2023-01-02T15:30:18.387Z,100418.94
2023-01-02T15:32:50.333Z,100426.63
2023-01-02T15:35:30.217Z,100425.38
2023-01-02T15:38:05.456Z,100454.31
2023-01-02T15:40:38.366Z,100448.28
2023-01-02T15:43:34.449Z,100457.63
2023-01-02T15:46:06.736Z,100437.69
2023-01-02T15:48:40.103Z,100441.97
2023-01-02T15:51:18.057Z,100452.03
2023-01-02T15:53:50.517Z,100385.91
2023-01-02T15:56:40.109Z,100463.53
2023-01-02T15:59:34.851Z,100471.41
2023-01-02T16:02:18.905Z,100465.47
2023-01-02T16:05:06.499Z,100453.75
2023-01-02T16:07:39.336Z,100454.69
2023-01-02T16:10:19.640Z,100436.59
2023-01-02T16:12:55.995Z,100439.19
2023-01-02T16:15:33.069Z,100464.75
2023-01-02T16:18:05.051Z,100448.84
2023-01-02T16:20:37.052Z,100434.53
2023-01-02T16:23:19.701Z,100445.44
2023-01-02T16:25:52.124Z,100453.44
2023-01-02T16:28:35.689Z,100427.19
2023-01-02T16:31:16.227Z,100437.06
2023-01-02T16:33:48.409Z,100401.94
2023-01-02T16:36:24.889Z,100437.88
2023-01-02T16:38:59.824Z,100443.28
2023-01-02T16:41:37.610Z,100448.38
2023-01-02T16:44:12.743Z,100436.81
2023-01-02T16:46:47.138Z,100445.03
2023-01-02T16:49:21.940Z,100443.47
2023-01-02T16:51:54.902Z,100433.41
2023-01-02T16:54:26.905Z,100435.16
2023-01-02T16:56:58.894Z,100447.94
2023-01-02T16:59:31.029Z,100392.03
2023-01-02T17:02:05.871Z,100409.72
2023-01-02T17:04:37.945Z,100409.53
2023-01-02T17:07:10.681Z,100397.50
2023-01-02T17:09:42.646Z,100409.97
2023-01-02T17:12:14.506Z,100412.66
2023-01-02T17:14:46.489Z,100412.44
2023-01-02T17:17:18.529Z,100379.78
2023-01-02T17:19:50.497Z,100391.81
2023-01-02T17:22:22.468Z,100418.25
2023-01-02T17:24:56.060Z,100428.94
2023-01-02T17:27:28.008Z,100431.63
2023-01-02T17:30:00.196Z,100442.75
2023-01-02T17:32:32.571Z,100446.16
2023-01-02T17:35:04.863Z,100430.72
2023-01-02T17:37:37.924Z,100417.09
2023-01-02T17:40:12.438Z,100429.78
2023-01-02T17:42:44.706Z,100429.97
2023-01-02T17:45:16.670Z,100425.38
2023-01-02T17:48:10.390Z,100423.19
2023-01-02T17:50:40.897Z,100408.03
2023-01-02T17:53:12.836Z,100394.81
2023-01-02T17:55:52.079Z,100418.53
2023-01-02T17:58:43.988Z,100409.13
2023-01-02T18:01:21.380Z,100425.69
2023-01-02T18:03:53.385Z,100395.00
2023-01-02T18:06:25.306Z,100401.97
2023-01-02T18:08:57.185Z,100421.06
2023-01-02T18:11:29.152Z,100393.84
2023-01-02T18:14:02.961Z,100427.28
2023-01-02T18:16:40.301Z,100424.25
2023-01-02T18:19:18.258Z,100421.03
2023-01-02T18:21:51.202Z,100419.00
2023-01-02T18:24:32.447Z,100430.41
2023-01-02T18:27:32.908Z,100423.09
2023-01-02T18:30:13.197Z,100428.84
2023-01-02T18:32:46.849Z,100426.72
2023-01-02T18:35:56.108Z,100426.63
2023-01-02T18:38:38.221Z,100432.28
2023-01-02T18:41:27.739Z,100384.94
2023-01-02T18:44:35.499Z,100403.78
2023-01-02T18:47:26.154Z,100425.69
2023-01-02T18:50:29.240Z,100428.09
2023-01-02T18:53:19.414Z,100441.78
2023-01-02T18:55:55.975Z,100442.34
2023-01-02T18:58:57.426Z,100438.00
2023-01-02T19:01:31.092Z,100433.91
2023-01-02T19:04:27.311Z,100418.03
2023-01-02T19:07:14.532Z,100422.19
2023-01-02T19:09:46.430Z,100371.34
2023-01-02T19:12:45.395Z,100411.94
2023-01-02T19:15:37.002Z,100419.06
2023-01-02T19:18:14.589Z,100412.97
2023-01-02T19:20:50.313Z,100391.69
2023-01-02T19:23:28.340Z,100401.69
2023-01-02T19:26:14.655Z,100339.94
2023-01-02T19:29:19.439Z,100384.03
2023-01-02T19:32:25.185Z,100395.00
2023-01-02T19:35:02.153Z,100411.28
2023-01-02T19:37:39.447Z,100419.81
2023-01-02T19:40:19.866Z,100402.41
2023-01-02T19:42:55.659Z,100426.00
2023-01-02T19:45:29.639Z,100410.94
2023-01-02T19:48:01.577Z,100395.28
2023-01-02T19:50:33.511Z,100412.19
2023-01-02T19:53:05.510Z,100386.88
2023-01-02T19:55:37.538Z,100396.69
2023-01-02T19:58:09.631Z,100412.66
2023-01-02T20:00:41.484Z,100401.94
2023-01-02T20:03:13.935Z,100373.13
2023-01-02T20:05:45.913Z,100367.41
2023-01-02T20:08:17.762Z,100402.03
2023-01-02T20:10:49.715Z,100402.69
2023-01-02T20:13:21.576Z,100405.38
2023-01-02T20:15:53.556Z,100394.63
2023-01-02T20:18:25.553Z,100427.25
2023-01-02T20:20:57.505Z,100415.81
2023-01-02T20:23:29.376Z,100388.19
2023-01-02T20:26:01.821Z,100416.44
2023-01-02T20:28:34.118Z,100429.22
2023-01-02T20:31:06.094Z,100393.53
2023-01-02T20:33:38.083Z,100422.53
2023-01-02T20:36:13.721Z,100425.13
2023-01-02T20:38:45.956Z,100413.50
2023-01-02T20:41:17.833Z,100403.44
2023-01-02T20:43:49.804Z,100431.44
2023-01-02T20:46:21.834Z,100430.16
2023-01-02T20:48:53.771Z,100422.00
2023-01-02T20:51:25.727Z,100416.47
2023-01-02T20:53:59.541Z,100421.91
2023-01-02T20:56:31.699Z,100428.66
2023-01-02T20:59:04.430Z,100441.63
2023-01-02T21:01:36.369Z,100418.50
2023-01-02T21:04:09.324Z,100445.84
2023-01-02T21:06:41.296Z,100444.00
2023-01-02T21:09:13.268Z,100425.53
2023-01-02T21:11:45.260Z,100420.97
2023-01-02T21:14:17.220Z,100439.28
2023-01-02T21:16:49.192Z,100438.09
2023-01-02T21:19:21.148Z,100424.59
2023-01-02T21:21:53.108Z,100434.84
2023-01-02T21:24:25.079Z,100438.75
2023-01-02T21:26:57.056Z,100427.81
2023-01-02T21:29:29.047Z,100436.59
2023-01-02T21:32:00.890Z,100432.53
2023-01-02T21:34:32.963Z,100447.53
2023-01-02T21:37:04.900Z,100427.91
2023-01-02T21:39:36.893Z,100439.66
2023-01-02T21:42:18.054Z,100458.81
2023-01-02T21:44:50.077Z,100459.66
2023-01-02T21:47:22.079Z,100455.97
2023-01-02T21:49:54.131Z,100468.44
2023-01-02T21:52:26.128Z,100443.19
2023-01-02T21:54:58.064Z,100436.69
2023-01-02T21:57:54.229Z,100448.09
2023-01-02T22:00:25.236Z,100446.41
2023-01-02T22:02:57.382Z,100453.63
2023-01-02T22:05:29.460Z,100405.53
2023-01-02T22:08:01.549Z,100457.59
2023-01-02T22:10:33.561Z,100455.19
2023-01-02T22:13:05.475Z,100438.66
2023-01-02T22:15:37.439Z,100402.66
2023-01-02T22:18:09.325Z,100446.75
2023-01-02T22:20:41.220Z,100432.44
2023-01-02T22:23:13.055Z,100452.22
2023-01-02T22:25:44.935Z,100421.44
2023-01-02T22:28:16.881Z,100437.91
2023-01-02T22:30:48.868Z,100453.03
2023-01-02T22:33:20.917Z,100462.84
2023-01-02T22:35:52.948Z,100467.31
2023-01-02T22:38:24.995Z,100470.00
2023-01-02T22:40:57.073Z,100463.31
2023-01-02T22:43:36.076Z,100451.38
2023-01-02T22:46:20.034Z,100478.41
2023-01-02T22:48:52.758Z,100463.41
2023-01-02T22:51:57.670Z,100466.78
2023-01-02T22:54:20.647Z,100479.06
2023-01-02T22:56:52.564Z,100458.72
2023-01-02T22:59:24.513Z,100466.56
2023-01-02T23:01:56.557Z,100473.59
2023-01-02T23:04:28.499Z,100445.41
2023-01-02T23:07:23.950Z,100457.13
2023-01-02T23:09:52.247Z,100476.00
2023-01-02T23:12:24.089Z,100479.41
2023-01-02T23:14:55.962Z,100480.50
2023-01-02T23:17:46.464Z,100399.78
2023-01-02T23:20:18.797Z,100488.94
2023-01-02T23:22:51.155Z,100483.94
2023-01-02T23:25:23.778Z,100510.41
2023-01-02T23:27:55.656Z,100507.88
2023-01-02T23:30:27.534Z,100482.06
2023-01-02T23:32:59.375Z,100487.63
2023-01-02T23:35:31.562Z,100482.63
2023-01-02T23:38:03.428Z,100499.19
2023-01-02T23:40:35.303Z,100503.16
2023-01-02T23:43:07.131Z,100492.28
2023-01-02T23:45:39.090Z,100485.69
2023-01-02T23:48:11.077Z,100456.28
2023-01-02T23:50:46.404Z,100481.94
2023-01-02T23:53:18.279Z,100460.56
2023-01-02T23:55:50.152Z,100482.94
2023-01-02T23:58:23.183Z,100490.16
